sensor_id;sensor_type;location;lat;lon;timestamp;temperature;humidity
16505;HTU21D;8365;51.030;4.696;2023-03-01T00:02:16;3.10;69.27
16505;HTU21D;8365;51.030;4.696;2023-03-01T00:04:49;3.12;69.12
16505;HTU21D;8365;51.030;4.696;2023-03-01T00:07:20;3.10;69.13
16505;HTU21D;8365;51.030;4.696;2023-03-01T00:09:50;3.08;69.52
16505;HTU21D;8365;51.030;4.696;2023-03-01T00:12:21;3.08;69.62
16505;HTU21D;8365;51.030;4.696;2023-03-01T00:14:52;3.01;69.83
16505;HTU21D;8365;51.030;4.696;2023-03-01T00:17:22;3.04;69.52
16505;HTU21D;8365;51.030;4.696;2023-03-01T00:19:53;3.03;69.12
16505;HTU21D;8365;51.030;4.696;2023-03-01T00:22:23;2.99;69.74
16505;HTU21D;8365;51.030;4.696;2023-03-01T00:24:54;2.72;72.14
16505;HTU21D;8365;51.030;4.696;2023-03-01T00:27:24;2.85;71.09
16505;HTU21D;8365;51.030;4.696;2023-03-01T00:29:55;2.91;70.14
16505;HTU21D;8365;51.030;4.696;2023-03-01T00:32:25;2.81;70.84
16505;HTU21D;8365;51.030;4.696;2023-03-01T00:34:56;2.71;71.96
16505;HTU21D;8365;51.030;4.696;2023-03-01T00:37:26;2.72;72.13
16505;HTU21D;8365;51.030;4.696;2023-03-01T00:39:59;2.62;72.35
16505;HTU21D;8365;51.030;4.696;2023-03-01T00:42:29;2.69;71.97
16505;HTU21D;8365;51.030;4.696;2023-03-01T00:45:00;2.75;71.26
16505;HTU21D;8365;51.030;4.696;2023-03-01T00:47:30;2.71;71.66
16505;HTU21D;8365;51.030;4.696;2023-03-01T00:50:01;2.67;72.28
16505;HTU21D;8365;51.030;4.696;2023-03-01T00:52:31;2.56;73.06
16505;HTU21D;8365;51.030;4.696;2023-03-01T00:55:02;2.44;74.09
16505;HTU21D;8365;51.030;4.696;2023-03-01T00:57:33;2.47;73.78
16505;HTU21D;8365;51.030;4.696;2023-03-01T01:00:05;2.42;74.48
16505;HTU21D;8365;51.030;4.696;2023-03-01T01:02:37;2.38;74.58
16505;HTU21D;8365;51.030;4.696;2023-03-01T01:05:08;2.54;73.55
16505;HTU21D;8365;51.030;4.696;2023-03-01T01:07:38;2.35;74.92
16505;HTU21D;8365;51.030;4.696;2023-03-01T01:10:09;2.38;75.05
16505;HTU21D;8365;51.030;4.696;2023-03-01T01:12:47;2.42;74.86
16505;HTU21D;8365;51.030;4.696;2023-03-01T01:15:17;2.39;75.25
16505;HTU21D;8365;51.030;4.696;2023-03-01T01:17:48;2.51;73.87
16505;HTU21D;8365;51.030;4.696;2023-03-01T01:20:18;2.49;73.42
16505;HTU21D;8365;51.030;4.696;2023-03-01T01:22:48;2.58;73.38
16505;HTU21D;8365;51.030;4.696;2023-03-01T01:25:19;2.58;72.99
16505;HTU21D;8365;51.030;4.696;2023-03-01T01:27:50;2.56;72.96
16505;HTU21D;8365;51.030;4.696;2023-03-01T01:30:20;2.57;72.72
16505;HTU21D;8365;51.030;4.696;2023-03-01T01:32:50;2.47;73.86
16505;HTU21D;8365;51.030;4.696;2023-03-01T01:35:21;2.52;73.08
16505;HTU21D;8365;51.030;4.696;2023-03-01T01:37:51;2.64;72.51
16505;HTU21D;8365;51.030;4.696;2023-03-01T01:40:22;2.56;72.76
16505;HTU21D;8365;51.030;4.696;2023-03-01T01:42:52;2.57;72.67
16505;HTU21D;8365;51.030;4.696;2023-03-01T01:48:03;2.50;72.92
16505;HTU21D;8365;51.030;4.696;2023-03-01T01:50:35;2.47;72.91
16505;HTU21D;8365;51.030;4.696;2023-03-01T01:53:12;2.50;72.90
16505;HTU21D;8365;51.030;4.696;2023-03-01T01:55:49;2.44;72.70
16505;HTU21D;8365;51.030;4.696;2023-03-01T01:58:21;2.26;74.90
16505;HTU21D;8365;51.030;4.696;2023-03-01T02:00:53;2.16;76.08
16505;HTU21D;8365;51.030;4.696;2023-03-01T02:03:27;2.20;75.47
16505;HTU21D;8365;51.030;4.696;2023-03-01T02:06:07;2.16;75.69
16505;HTU21D;8365;51.030;4.696;2023-03-01T02:08:42;2.11;76.11
16505;HTU21D;8365;51.030;4.696;2023-03-01T02:11:14;2.11;75.81
16505;HTU21D;8365;51.030;4.696;2023-03-01T02:13:46;2.19;75.47
16505;HTU21D;8365;51.030;4.696;2023-03-01T02:16:17;2.10;76.26
16505;HTU21D;8365;51.030;4.696;2023-03-01T02:18:49;2.10;75.79
16505;HTU21D;8365;51.030;4.696;2023-03-01T02:23:54;2.11;75.50
16505;HTU21D;8365;51.030;4.696;2023-03-01T02:26:34;2.07;76.22
16505;HTU21D;8365;51.030;4.696;2023-03-01T02:29:08;2.03;75.86
16505;HTU21D;8365;51.030;4.696;2023-03-01T02:31:39;1.97;75.93
16505;HTU21D;8365;51.030;4.696;2023-03-01T02:34:15;1.98;75.88
16505;HTU21D;8365;51.030;4.696;2023-03-01T02:36:53;1.92;76.95
16505;HTU21D;8365;51.030;4.696;2023-03-01T02:39:28;1.87;76.89
16505;HTU21D;8365;51.030;4.696;2023-03-01T02:42:02;1.73;77.98
16505;HTU21D;8365;51.030;4.696;2023-03-01T02:44:34;1.73;77.86
16505;HTU21D;8365;51.030;4.696;2023-03-01T02:47:04;1.78;77.49
16505;HTU21D;8365;51.030;4.696;2023-03-01T02:49:37;1.64;78.85
16505;HTU21D;8365;51.030;4.696;2023-03-01T02:52:17;1.52;81.13
16505;HTU21D;8365;51.030;4.696;2023-03-01T02:55:08;1.57;80.52
16505;HTU21D;8365;51.030;4.696;2023-03-01T02:57:42;1.50;80.58
16505;HTU21D;8365;51.030;4.696;2023-03-01T03:00:23;1.61;79.80
16505;HTU21D;8365;51.030;4.696;2023-03-01T03:02:57;1.55;80.39
16505;HTU21D;8365;51.030;4.696;2023-03-01T03:05:30;1.43;82.81
16505;HTU21D;8365;51.030;4.696;2023-03-01T03:08:01;1.52;81.33
16505;HTU21D;8365;51.030;4.696;2023-03-01T03:10:38;1.56;80.01
16505;HTU21D;8365;51.030;4.696;2023-03-01T03:13:14;1.58;79.75
16505;HTU21D;8365;51.030;4.696;2023-03-01T03:15:44;1.36;83.26
16505;HTU21D;8365;51.030;4.696;2023-03-01T03:18:16;1.17;85.42
16505;HTU21D;8365;51.030;4.696;2023-03-01T03:20:49;1.34;82.99
16505;HTU21D;8365;51.030;4.696;2023-03-01T03:23:23;1.32;83.79
16505;HTU21D;8365;51.030;4.696;2023-03-01T03:25:54;1.45;82.36
16505;HTU21D;8365;51.030;4.696;2023-03-01T03:28:24;1.42;82.43
16505;HTU21D;8365;51.030;4.696;2023-03-01T03:30:54;1.37;82.58
16505;HTU21D;8365;51.030;4.696;2023-03-01T03:33:25;1.34;82.86
16505;HTU21D;8365;51.030;4.696;2023-03-01T03:35:56;1.38;82.90
16505;HTU21D;8365;51.030;4.696;2023-03-01T03:38:26;1.37;82.88
16505;HTU21D;8365;51.030;4.696;2023-03-01T03:41:01;1.33;82.47
16505;HTU21D;8365;51.030;4.696;2023-03-01T03:43:35;1.29;83.49
16505;HTU21D;8365;51.030;4.696;2023-03-01T03:46:06;1.34;82.68
16505;HTU21D;8365;51.030;4.696;2023-03-01T03:48:43;1.37;82.54
16505;HTU21D;8365;51.030;4.696;2023-03-01T03:51:16;1.29;83.54
16505;HTU21D;8365;51.030;4.696;2023-03-01T03:53:46;1.28;84.24
16505;HTU21D;8365;51.030;4.696;2023-03-01T03:56:17;1.28;84.23
16505;HTU21D;8365;51.030;4.696;2023-03-01T03:58:47;1.24;85.56
16505;HTU21D;8365;51.030;4.696;2023-03-01T04:01:18;1.23;84.87
16505;HTU21D;8365;51.030;4.696;2023-03-01T04:03:48;1.29;84.52
16505;HTU21D;8365;51.030;4.696;2023-03-01T04:06:24;1.32;84.15
16505;HTU21D;8365;51.030;4.696;2023-03-01T04:08:54;1.38;83.78
16505;HTU21D;8365;51.030;4.696;2023-03-01T04:11:29;1.40;82.87
16505;HTU21D;8365;51.030;4.696;2023-03-01T04:13:59;1.31;83.70
16505;HTU21D;8365;51.030;4.696;2023-03-01T04:16:30;1.36;82.90
16505;HTU21D;8365;51.030;4.696;2023-03-01T04:19:00;1.21;83.49
16505;HTU21D;8365;51.030;4.696;2023-03-01T04:21:31;1.25;83.90
16505;HTU21D;8365;51.030;4.696;2023-03-01T04:24:01;1.33;83.26
16505;HTU21D;8365;51.030;4.696;2023-03-01T04:26:33;1.26;83.69
16505;HTU21D;8365;51.030;4.696;2023-03-01T04:29:04;1.24;83.70
16505;HTU21D;8365;51.030;4.696;2023-03-01T04:31:34;1.26;83.55
16505;HTU21D;8365;51.030;4.696;2023-03-01T04:34:05;1.23;84.21
16505;HTU21D;8365;51.030;4.696;2023-03-01T04:36:35;1.24;83.19
16505;HTU21D;8365;51.030;4.696;2023-03-01T04:39:06;1.20;83.94
16505;HTU21D;8365;51.030;4.696;2023-03-01T04:41:42;1.14;84.59
16505;HTU21D;8365;51.030;4.696;2023-03-01T04:44:15;1.21;84.27
16505;HTU21D;8365;51.030;4.696;2023-03-01T04:46:48;1.16;84.39
16505;HTU21D;8365;51.030;4.696;2023-03-01T04:49:19;1.23;83.59
16505;HTU21D;8365;51.030;4.696;2023-03-01T04:51:53;1.18;84.29
16505;HTU21D;8365;51.030;4.696;2023-03-01T04:54:23;1.07;85.11
16505;HTU21D;8365;51.030;4.696;2023-03-01T04:56:55;0.88;88.14
16505;HTU21D;8365;51.030;4.696;2023-03-01T04:59:25;1.01;86.28
16505;HTU21D;8365;51.030;4.696;2023-03-01T05:01:56;0.92;87.35
16505;HTU21D;8365;51.030;4.696;2023-03-01T05:04:27;0.95;88.22
16505;HTU21D;8365;51.030;4.696;2023-03-01T05:06:57;0.96;87.71
16505;HTU21D;8365;51.030;4.696;2023-03-01T05:09:28;0.96;87.63
16505;HTU21D;8365;51.030;4.696;2023-03-01T05:11:59;0.88;88.82
16505;HTU21D;8365;51.030;4.696;2023-03-01T05:14:29;0.89;89.70
16505;HTU21D;8365;51.030;4.696;2023-03-01T05:17:00;0.91;88.44
16505;HTU21D;8365;51.030;4.696;2023-03-01T05:19:34;0.95;88.09
16505;HTU21D;8365;51.030;4.696;2023-03-01T05:22:04;0.89;88.67
16505;HTU21D;8365;51.030;4.696;2023-03-01T05:24:35;0.76;90.65
16505;HTU21D;8365;51.030;4.696;2023-03-01T05:27:06;0.75;91.16
16505;HTU21D;8365;51.030;4.696;2023-03-01T05:29:36;0.84;90.03
16505;HTU21D;8365;51.030;4.696;2023-03-01T05:32:09;0.81;90.31
16505;HTU21D;8365;51.030;4.696;2023-03-01T05:34:44;0.84;89.66
16505;HTU21D;8365;51.030;4.696;2023-03-01T05:37:16;0.86;89.36
16505;HTU21D;8365;51.030;4.696;2023-03-01T05:39:49;0.81;89.58
16505;HTU21D;8365;51.030;4.696;2023-03-01T05:42:20;0.82;89.26
16505;HTU21D;8365;51.030;4.696;2023-03-01T05:44:51;0.81;88.99
16505;HTU21D;8365;51.030;4.696;2023-03-01T05:47:21;0.78;89.58
16505;HTU21D;8365;51.030;4.696;2023-03-01T05:49:52;0.80;89.06
16505;HTU21D;8365;51.030;4.696;2023-03-01T05:52:22;0.68;89.41
16505;HTU21D;8365;51.030;4.696;2023-03-01T05:54:53;0.68;89.12
16505;HTU21D;8365;51.030;4.696;2023-03-01T05:57:23;0.74;88.67
16505;HTU21D;8365;51.030;4.696;2023-03-01T05:59:53;0.69;89.15
16505;HTU21D;8365;51.030;4.696;2023-03-01T06:02:26;0.54;90.42
16505;HTU21D;8365;51.030;4.696;2023-03-01T06:04:57;0.65;90.76
16505;HTU21D;8365;51.030;4.696;2023-03-01T06:07:28;0.63;90.74
16505;HTU21D;8365;51.030;4.696;2023-03-01T06:09:58;0.60;90.28
16505;HTU21D;8365;51.030;4.696;2023-03-01T06:12:37;0.64;90.04
16505;HTU21D;8365;51.030;4.696;2023-03-01T06:15:08;0.60;89.98
16505;HTU21D;8365;51.030;4.696;2023-03-01T06:17:43;0.57;91.88
16505;HTU21D;8365;51.030;4.696;2023-03-01T06:20:23;0.61;90.92
16505;HTU21D;8365;51.030;4.696;2023-03-01T06:22:53;0.61;90.35
16505;HTU21D;8365;51.030;4.696;2023-03-01T06:25:25;0.58;90.20
16505;HTU21D;8365;51.030;4.696;2023-03-01T06:27:56;0.61;90.66
16505;HTU21D;8365;51.030;4.696;2023-03-01T06:30:26;0.62;90.46
16505;HTU21D;8365;51.030;4.696;2023-03-01T06:32:57;0.63;90.42
16505;HTU21D;8365;51.030;4.696;2023-03-01T06:35:31;0.59;90.17
16505;HTU21D;8365;51.030;4.696;2023-03-01T06:38:03;0.57;90.53
16505;HTU21D;8365;51.030;4.696;2023-03-01T06:40:34;0.54;91.18
16505;HTU21D;8365;51.030;4.696;2023-03-01T06:43:05;0.44;91.79
16505;HTU21D;8365;51.030;4.696;2023-03-01T06:45:37;0.40;92.89
16505;HTU21D;8365;51.030;4.696;2023-03-01T06:48:07;0.49;93.01
16505;HTU21D;8365;51.030;4.696;2023-03-01T06:50:38;0.61;92.72
16505;HTU21D;8365;51.030;4.696;2023-03-01T06:53:08;0.58;92.99
16505;HTU21D;8365;51.030;4.696;2023-03-01T06:55:39;0.64;92.98
16505;HTU21D;8365;51.030;4.696;2023-03-01T06:58:10;0.53;93.35
16505;HTU21D;8365;51.030;4.696;2023-03-01T07:00:41;0.65;93.26
16505;HTU21D;8365;51.030;4.696;2023-03-01T07:03:13;0.50;95.84
16505;HTU21D;8365;51.030;4.696;2023-03-01T07:05:43;0.62;95.15
16505;HTU21D;8365;51.030;4.696;2023-03-01T07:08:17;0.69;95.10
16505;HTU21D;8365;51.030;4.696;2023-03-01T07:10:47;0.77;94.57
16505;HTU21D;8365;51.030;4.696;2023-03-01T07:13:18;0.74;95.49
16505;HTU21D;8365;51.030;4.696;2023-03-01T07:15:48;0.83;94.62
16505;HTU21D;8365;51.030;4.696;2023-03-01T07:18:18;0.93;94.54
16505;HTU21D;8365;51.030;4.696;2023-03-01T07:20:49;0.92;95.45
16505;HTU21D;8365;51.030;4.696;2023-03-01T07:23:20;0.99;94.82
16505;HTU21D;8365;51.030;4.696;2023-03-01T07:25:54;0.99;96.18
16505;HTU21D;8365;51.030;4.696;2023-03-01T07:28:24;1.05;96.32
16505;HTU21D;8365;51.030;4.696;2023-03-01T07:30:55;1.19;95.68
16505;HTU21D;8365;51.030;4.696;2023-03-01T07:33:31;1.33;94.79
16505;HTU21D;8365;51.030;4.696;2023-03-01T07:36:05;1.65;94.04
16505;HTU21D;8365;51.030;4.696;2023-03-01T07:38:35;1.86;91.63
16505;HTU21D;8365;51.030;4.696;2023-03-01T07:41:06;2.34;90.31
16505;HTU21D;8365;51.030;4.696;2023-03-01T07:43:36;2.57;86.80
16505;HTU21D;8365;51.030;4.696;2023-03-01T07:46:07;3.05;85.40
16505;HTU21D;8365;51.030;4.696;2023-03-01T07:48:37;3.54;81.51
16505;HTU21D;8365;51.030;4.696;2023-03-01T07:51:08;4.41;76.34
16505;HTU21D;8365;51.030;4.696;2023-03-01T07:53:38;4.17;75.33
16505;HTU21D;8365;51.030;4.696;2023-03-01T07:56:13;4.33;73.97
16505;HTU21D;8365;51.030;4.696;2023-03-01T07:58:44;4.19;77.28
16505;HTU21D;8365;51.030;4.696;2023-03-01T08:01:18;4.54;76.03
16505;HTU21D;8365;51.030;4.696;2023-03-01T08:03:49;5.62;70.71
16505;HTU21D;8365;51.030;4.696;2023-03-01T08:06:19;5.92;66.14
16505;HTU21D;8365;51.030;4.696;2023-03-01T08:08:52;5.54;69.20
16505;HTU21D;8365;51.030;4.696;2023-03-01T08:11:25;6.42;64.85
16505;HTU21D;8365;51.030;4.696;2023-03-01T08:13:58;6.50;62.43
16505;HTU21D;8365;51.030;4.696;2023-03-01T08:16:28;6.85;61.75
16505;HTU21D;8365;51.030;4.696;2023-03-01T08:19:06;7.41;58.97
16505;HTU21D;8365;51.030;4.696;2023-03-01T08:21:37;7.07;59.32
16505;HTU21D;8365;51.030;4.696;2023-03-01T08:24:08;7.67;57.74
16505;HTU21D;8365;51.030;4.696;2023-03-01T08:26:40;7.72;56.87
16505;HTU21D;8365;51.030;4.696;2023-03-01T08:29:10;7.08;58.93
16505;HTU21D;8365;51.030;4.696;2023-03-01T08:31:41;7.94;57.06
16505;HTU21D;8365;51.030;4.696;2023-03-01T08:34:13;7.97;56.04
16505;HTU21D;8365;51.030;4.696;2023-03-01T08:36:45;8.37;55.10
16505;HTU21D;8365;51.030;4.696;2023-03-01T08:39:18;8.19;53.75
16505;HTU21D;8365;51.030;4.696;2023-03-01T08:41:49;7.79;56.37
16505;HTU21D;8365;51.030;4.696;2023-03-01T08:44:22;7.58;57.57
16505;HTU21D;8365;51.030;4.696;2023-03-01T08:46:52;7.83;56.96
16505;HTU21D;8365;51.030;4.696;2023-03-01T08:49:25;7.85;56.84
16505;HTU21D;8365;51.030;4.696;2023-03-01T08:51:59;8.36;54.39
16505;HTU21D;8365;51.030;4.696;2023-03-01T08:54:29;8.85;53.56
16505;HTU21D;8365;51.030;4.696;2023-03-01T08:57:06;9.56;51.79
16505;HTU21D;8365;51.030;4.696;2023-03-01T08:59:36;9.98;50.53
16505;HTU21D;8365;51.030;4.696;2023-03-01T09:02:18;10.31;50.11
16505;HTU21D;8365;51.030;4.696;2023-03-01T09:04:49;9.99;48.69
16505;HTU21D;8365;51.030;4.696;2023-03-01T09:07:19;10.46;48.82
16505;HTU21D;8365;51.030;4.696;2023-03-01T09:09:54;10.85;47.07
16505;HTU21D;8365;51.030;4.696;2023-03-01T09:12:25;10.18;49.22
16505;HTU21D;8365;51.030;4.696;2023-03-01T09:14:55;10.89;46.93
16505;HTU21D;8365;51.030;4.696;2023-03-01T09:17:26;11.38;44.93
16505;HTU21D;8365;51.030;4.696;2023-03-01T09:19:56;11.01;46.76
16505;HTU21D;8365;51.030;4.696;2023-03-01T09:22:27;11.61;44.49
16505;HTU21D;8365;51.030;4.696;2023-03-01T09:24:57;11.93;44.60
16505;HTU21D;8365;51.030;4.696;2023-03-01T09:27:29;11.57;44.63
16505;HTU21D;8365;51.030;4.696;2023-03-01T09:29:59;13.24;41.36
16505;HTU21D;8365;51.030;4.696;2023-03-01T09:32:32;12.56;41.68
16505;HTU21D;8365;51.030;4.696;2023-03-01T09:35:03;12.73;41.07
16505;HTU21D;8365;51.030;4.696;2023-03-01T09:37:37;12.60;41.42
16505;HTU21D;8365;51.030;4.696;2023-03-01T09:40:28;12.91;40.41
16505;HTU21D;8365;51.030;4.696;2023-03-01T09:43:25;12.42;41.02
16505;HTU21D;8365;51.030;4.696;2023-03-01T09:46:00;13.37;38.72
16505;HTU21D;8365;51.030;4.696;2023-03-01T09:48:42;13.11;38.48
16505;HTU21D;8365;51.030;4.696;2023-03-01T09:53:57;13.23;40.23
16505;HTU21D;8365;51.030;4.696;2023-03-01T10:02:28;13.53;38.76
16505;HTU21D;8365;51.030;4.696;2023-03-01T10:10:51;12.75;39.58
16505;HTU21D;8365;51.030;4.696;2023-03-01T10:13:33;13.64;37.75
16505;HTU21D;8365;51.030;4.696;2023-03-01T10:16:15;13.40;38.72
16505;HTU21D;8365;51.030;4.696;2023-03-01T10:18:53;14.78;36.54
16505;HTU21D;8365;51.030;4.696;2023-03-01T10:21:26;14.79;35.56
16505;HTU21D;8365;51.030;4.696;2023-03-01T10:24:12;14.47;36.52
16505;HTU21D;8365;51.030;4.696;2023-03-01T10:29:27;15.02;34.80
16505;HTU21D;8365;51.030;4.696;2023-03-01T10:32:00;13.93;36.09
16505;HTU21D;8365;51.030;4.696;2023-03-01T10:34:33;14.40;35.69
16505;HTU21D;8365;51.030;4.696;2023-03-01T10:37:18;14.48;36.26
16505;HTU21D;8365;51.030;4.696;2023-03-01T10:40:01;15.51;34.05
16505;HTU21D;8365;51.030;4.696;2023-03-01T10:42:46;15.16;33.45
16505;HTU21D;8365;51.030;4.696;2023-03-01T10:45:31;15.60;32.85
16505;HTU21D;8365;51.030;4.696;2023-03-01T10:50:34;16.27;31.82
16505;HTU21D;8365;51.030;4.696;2023-03-01T10:53:05;15.60;31.22
16505;HTU21D;8365;51.030;4.696;2023-03-01T10:55:57;15.56;32.48
16505;HTU21D;8365;51.030;4.696;2023-03-01T10:58:28;15.93;32.70
16505;HTU21D;8365;51.030;4.696;2023-03-01T11:06:40;15.22;33.07
16505;HTU21D;8365;51.030;4.696;2023-03-01T11:09:24;15.83;32.60
16505;HTU21D;8365;51.030;4.696;2023-03-01T11:12:00;16.41;30.96
16505;HTU21D;8365;51.030;4.696;2023-03-01T11:14:36;16.65;29.46
16505;HTU21D;8365;51.030;4.696;2023-03-01T11:19:41;17.11;30.57
16505;HTU21D;8365;51.030;4.696;2023-03-01T11:22:14;16.64;30.50
16505;HTU21D;8365;51.030;4.696;2023-03-01T11:24:53;17.45;29.48
16505;HTU21D;8365;51.030;4.696;2023-03-01T11:27:25;16.93;29.16
16505;HTU21D;8365;51.030;4.696;2023-03-01T11:30:06;17.23;28.84
16505;HTU21D;8365;51.030;4.696;2023-03-01T11:35:44;16.46;30.78
16505;HTU21D;8365;51.030;4.696;2023-03-01T11:38:25;17.33;29.96
16505;HTU21D;8365;51.030;4.696;2023-03-01T11:41:02;17.55;29.64
16505;HTU21D;8365;51.030;4.696;2023-03-01T11:44:24;17.84;29.70
16505;HTU21D;8365;51.030;4.696;2023-03-01T11:46:38;18.99;27.18
16505;HTU21D;8365;51.030;4.696;2023-03-01T11:57:20;18.55;27.32
16505;HTU21D;8365;51.030;4.696;2023-03-01T12:00:11;18.12;28.84
16505;HTU21D;8365;51.030;4.696;2023-03-01T12:08:17;18.59;27.20
16505;HTU21D;8365;51.030;4.696;2023-03-01T12:16:24;18.02;27.45
16505;HTU21D;8365;51.030;4.696;2023-03-01T12:21:36;19.60;25.88
16505;HTU21D;8365;51.030;4.696;2023-03-01T12:32:53;20.02;23.97
16505;HTU21D;8365;51.030;4.696;2023-03-01T12:38:50;20.16;24.05
16505;HTU21D;8365;51.030;4.696;2023-03-01T12:41:47;18.15;27.36
16505;HTU21D;8365;51.030;4.696;2023-03-01T12:50:23;18.92;25.52
16505;HTU21D;8365;51.030;4.696;2023-03-01T12:52:56;19.98;24.95
16505;HTU21D;8365;51.030;4.696;2023-03-01T12:55:34;19.96;24.12
16505;HTU21D;8365;51.030;4.696;2023-03-01T13:07:25;19.98;22.98
16505;HTU21D;8365;51.030;4.696;2023-03-01T13:15:29;19.97;24.62
16505;HTU21D;8365;51.030;4.696;2023-03-01T13:18:27;20.17;24.11
16505;HTU21D;8365;51.030;4.696;2023-03-01T13:20:59;20.85;23.12
16505;HTU21D;8365;51.030;4.696;2023-03-01T13:23:38;20.29;24.01
16505;HTU21D;8365;51.030;4.696;2023-03-01T13:26:13;20.93;22.37
16505;HTU21D;8365;51.030;4.696;2023-03-01T13:33:53;20.33;23.71
16505;HTU21D;8365;51.030;4.696;2023-03-01T13:39:31;20.09;23.53
16505;HTU21D;8365;51.030;4.696;2023-03-01T13:42:03;19.30;24.62
16505;HTU21D;8365;51.030;4.696;2023-03-01T13:44:36;19.46;24.78
16505;HTU21D;8365;51.030;4.696;2023-03-01T13:49:59;19.41;24.98
16505;HTU21D;8365;51.030;4.696;2023-03-01T13:52:44;19.76;23.98
16505;HTU21D;8365;51.030;4.696;2023-03-01T14:01:20;19.62;23.98
16505;HTU21D;8365;51.030;4.696;2023-03-01T14:03:51;19.97;24.40
16505;HTU21D;8365;51.030;4.696;2023-03-01T14:06:25;20.45;24.03
16505;HTU21D;8365;51.030;4.696;2023-03-01T14:15:06;21.03;22.76
16505;HTU21D;8365;51.030;4.696;2023-03-01T14:20:32;20.31;23.76
16505;HTU21D;8365;51.030;4.696;2023-03-01T14:23:14;20.32;23.11
16505;HTU21D;8365;51.030;4.696;2023-03-01T14:25:48;20.51;23.77
16505;HTU21D;8365;51.030;4.696;2023-03-01T14:28:24;19.18;25.72
16505;HTU21D;8365;51.030;4.696;2023-03-01T14:30:58;20.50;23.88
16505;HTU21D;8365;51.030;4.696;2023-03-01T14:33:35;20.68;23.81
16505;HTU21D;8365;51.030;4.696;2023-03-01T14:36:12;20.70;23.37
16505;HTU21D;8365;51.030;4.696;2023-03-01T14:38:46;20.81;22.79
16505;HTU21D;8365;51.030;4.696;2023-03-01T14:41:22;21.54;22.17
16505;HTU21D;8365;51.030;4.696;2023-03-01T14:43:56;20.26;24.58
16505;HTU21D;8365;51.030;4.696;2023-03-01T14:46:32;20.96;22.95
16505;HTU21D;8365;51.030;4.696;2023-03-01T14:49:14;20.03;22.93
16505;HTU21D;8365;51.030;4.696;2023-03-01T14:57:21;20.28;24.57
16505;HTU21D;8365;51.030;4.696;2023-03-01T14:59:58;19.47;24.94
16505;HTU21D;8365;51.030;4.696;2023-03-01T15:02:31;19.74;25.65
16505;HTU21D;8365;51.030;4.696;2023-03-01T15:05:03;19.98;24.59
16505;HTU21D;8365;51.030;4.696;2023-03-01T15:07:40;19.72;25.19
16505;HTU21D;8365;51.030;4.696;2023-03-01T15:10:37;19.51;25.17
16505;HTU21D;8365;51.030;4.696;2023-03-01T15:13:19;19.61;25.00
16505;HTU21D;8365;51.030;4.696;2023-03-01T15:15:53;19.67;25.14
16505;HTU21D;8365;51.030;4.696;2023-03-01T15:18:31;19.29;25.59
16505;HTU21D;8365;51.030;4.696;2023-03-01T15:21:18;19.98;24.43
16505;HTU21D;8365;51.030;4.696;2023-03-01T15:23:55;19.87;25.36
16505;HTU21D;8365;51.030;4.696;2023-03-01T15:26:32;19.31;25.17
16505;HTU21D;8365;51.030;4.696;2023-03-01T15:29:03;19.16;26.14
16505;HTU21D;8365;51.030;4.696;2023-03-01T15:31:36;19.35;25.13
16505;HTU21D;8365;51.030;4.696;2023-03-01T15:34:28;19.02;25.20
16505;HTU21D;8365;51.030;4.696;2023-03-01T15:37:00;19.59;25.68
16505;HTU21D;8365;51.030;4.696;2023-03-01T15:39:41;19.80;24.52
16505;HTU21D;8365;51.030;4.696;2023-03-01T15:47:55;18.71;26.26
16505;HTU21D;8365;51.030;4.696;2023-03-01T15:50:30;18.56;27.31
16505;HTU21D;8365;51.030;4.696;2023-03-01T15:53:09;18.41;26.96
16505;HTU21D;8365;51.030;4.696;2023-03-01T15:55:43;18.02;27.04
16505;HTU21D;8365;51.030;4.696;2023-03-01T15:58:18;17.55;27.61
16505;HTU21D;8365;51.030;4.696;2023-03-01T16:00:50;17.73;27.13
16505;HTU21D;8365;51.030;4.696;2023-03-01T16:03:26;17.20;28.14
16505;HTU21D;8365;51.030;4.696;2023-03-01T16:05:56;17.06;28.49
16505;HTU21D;8365;51.030;4.696;2023-03-01T16:08:27;17.18;28.55
16505;HTU21D;8365;51.030;4.696;2023-03-01T16:10:57;17.21;28.34
16505;HTU21D;8365;51.030;4.696;2023-03-01T16:13:28;16.95;28.99
16505;HTU21D;8365;51.030;4.696;2023-03-01T16:15:58;16.41;28.32
16505;HTU21D;8365;51.030;4.696;2023-03-01T16:18:29;15.91;29.59
16505;HTU21D;8365;51.030;4.696;2023-03-01T16:21:00;15.70;30.16
16505;HTU21D;8365;51.030;4.696;2023-03-01T16:23:30;15.56;30.83
16505;HTU21D;8365;51.030;4.696;2023-03-01T16:26:01;15.36;30.74
16505;HTU21D;8365;51.030;4.696;2023-03-01T16:28:31;14.41;32.14
16505;HTU21D;8365;51.030;4.696;2023-03-01T16:31:02;14.12;32.93
16505;HTU21D;8365;51.030;4.696;2023-03-01T16:33:32;13.76;33.79
16505;HTU21D;8365;51.030;4.696;2023-03-01T16:36:09;13.74;34.12
16505;HTU21D;8365;51.030;4.696;2023-03-01T16:38:39;14.09;32.96
16505;HTU21D;8365;51.030;4.696;2023-03-01T16:41:14;13.68;34.09
16505;HTU21D;8365;51.030;4.696;2023-03-01T16:43:45;13.61;34.47
16505;HTU21D;8365;51.030;4.696;2023-03-01T16:46:21;13.25;35.27
16505;HTU21D;8365;51.030;4.696;2023-03-01T16:48:52;13.45;35.08
16505;HTU21D;8365;51.030;4.696;2023-03-01T16:51:24;13.26;35.55
16505;HTU21D;8365;51.030;4.696;2023-03-01T16:53:55;12.74;36.40
16505;HTU21D;8365;51.030;4.696;2023-03-01T16:56:25;12.33;36.88
16505;HTU21D;8365;51.030;4.696;2023-03-01T16:58:56;12.40;37.16
16505;HTU21D;8365;51.030;4.696;2023-03-01T17:01:26;12.02;37.60
16505;HTU21D;8365;51.030;4.696;2023-03-01T17:04:03;11.79;37.81
16505;HTU21D;8365;51.030;4.696;2023-03-01T17:06:34;11.83;38.16
16505;HTU21D;8365;51.030;4.696;2023-03-01T17:09:04;11.46;38.39
16505;HTU21D;8365;51.030;4.696;2023-03-01T17:11:35;11.22;39.42
16505;HTU21D;8365;51.030;4.696;2023-03-01T17:14:06;10.36;41.80
16505;HTU21D;8365;51.030;4.696;2023-03-01T17:16:37;10.24;42.31
16505;HTU21D;8365;51.030;4.696;2023-03-01T17:19:07;9.65;43.16
16505;HTU21D;8365;51.030;4.696;2023-03-01T17:21:38;9.50;43.73
16505;HTU21D;8365;51.030;4.696;2023-03-01T17:24:08;9.45;43.49
16505;HTU21D;8365;51.030;4.696;2023-03-01T17:26:39;9.04;44.63
16505;HTU21D;8365;51.030;4.696;2023-03-01T17:29:09;9.01;44.91
16505;HTU21D;8365;51.030;4.696;2023-03-01T17:31:40;8.73;46.22
16505;HTU21D;8365;51.030;4.696;2023-03-01T17:34:11;8.68;45.90
16505;HTU21D;8365;51.030;4.696;2023-03-01T17:36:41;8.48;46.80
16505;HTU21D;8365;51.030;4.696;2023-03-01T17:39:15;8.42;46.77
16505;HTU21D;8365;51.030;4.696;2023-03-01T17:41:46;8.22;47.54
16505;HTU21D;8365;51.030;4.696;2023-03-01T17:44:17;8.11;48.18
16505;HTU21D;8365;51.030;4.696;2023-03-01T17:46:47;8.03;48.12
16505;HTU21D;8365;51.030;4.696;2023-03-01T17:49:18;8.00;48.17
16505;HTU21D;8365;51.030;4.696;2023-03-01T17:51:48;8.06;47.77
16505;HTU21D;8365;51.030;4.696;2023-03-01T17:54:19;8.00;48.41
16505;HTU21D;8365;51.030;4.696;2023-03-01T17:56:50;7.83;49.44
16505;HTU21D;8365;51.030;4.696;2023-03-01T17:59:21;7.94;48.74
16505;HTU21D;8365;51.030;4.696;2023-03-01T18:01:51;7.93;48.98
16505;HTU21D;8365;51.030;4.696;2023-03-01T18:04:22;7.76;50.11
16505;HTU21D;8365;51.030;4.696;2023-03-01T18:06:52;7.70;50.20
16505;HTU21D;8365;51.030;4.696;2023-03-01T18:09:26;7.88;49.42
16505;HTU21D;8365;51.030;4.696;2023-03-01T18:11:56;7.91;49.41
16505;HTU21D;8365;51.030;4.696;2023-03-01T18:14:27;7.82;49.37
16505;HTU21D;8365;51.030;4.696;2023-03-01T18:17:03;7.76;49.84
16505;HTU21D;8365;51.030;4.696;2023-03-01T18:19:38;7.64;50.11
16505;HTU21D;8365;51.030;4.696;2023-03-01T18:22:12;7.59;50.43
16505;HTU21D;8365;51.030;4.696;2023-03-01T18:24:43;7.53;51.04
16505;HTU21D;8365;51.030;4.696;2023-03-01T18:27:13;7.35;51.50